createdAt,value
2023-04-03T00:02:59.055Z,84.95
2023-04-03T00:06:02.552Z,85.44
2023-04-03T00:09:10.171Z,85.70
2023-04-03T00:12:13.696Z,85.87
2023-04-03T00:15:16.671Z,85.86
2023-04-03T00:18:23.008Z,86.34
2023-04-03T00:21:26.098Z,86.22
2023-04-03T00:24:28.866Z,86.50
2023-04-03T00:27:34.492Z,86.40
2023-04-03T00:30:40.681Z,86.40
2023-04-03T00:33:43.589Z,86.77
2023-04-03T00:36:46.707Z,86.87
2023-04-03T00:39:50.097Z,86.64
2023-04-03T00:42:58.344Z,86.86
2023-04-03T00:46:01.863Z,87.03
2023-04-03T00:49:04.734Z,87.25
2023-04-03T00:52:14.237Z,87.59
2023-04-03T00:55:17.634Z,87.09
2023-04-03T00:58:21.943Z,87.01
2023-04-03T01:01:27.290Z,87.40
2023-04-03T01:04:34.879Z,86.81
2023-04-03T01:07:41.434Z,86.87
2023-04-03T01:10:44.626Z,86.77
2023-04-03T01:13:50.884Z,85.91
2023-04-03T01:16:55.120Z,86.07
2023-04-03T01:20:33.369Z,86.03
2023-04-03T01:24:11.817Z,86.47
2023-04-03T01:27:14.584Z,86.07
2023-04-03T01:30:22.119Z,85.82
2023-04-03T01:33:25.005Z,85.77
2023-04-03T01:36:30.727Z,86.45
2023-04-03T01:39:33.545Z,86.20
2023-04-03T01:42:36.591Z,85.62
2023-04-03T01:45:39.368Z,85.99
2023-04-03T01:51:43.854Z,87.00
2023-04-03T01:57:48.128Z,86.10
2023-04-03T02:00:50.995Z,86.70
2023-04-03T02:03:54.128Z,86.41
2023-04-03T02:06:56.749Z,86.27
2023-04-03T02:10:02.905Z,86.26
2023-04-03T02:13:06.130Z,86.82
2023-04-03T02:16:11.364Z,86.31
2023-04-03T02:19:14.397Z,86.56
2023-04-03T02:22:21.445Z,86.57
2023-04-03T02:25:24.173Z,86.37
2023-04-03T02:28:26.858Z,86.91
2023-04-03T02:31:29.837Z,86.58
2023-04-03T02:34:32.733Z,86.67
2023-04-03T02:37:35.909Z,86.96
2023-04-03T02:40:39.339Z,87.11
2023-04-03T02:43:42.533Z,87.38
2023-04-03T02:46:45.328Z,87.14
2023-04-03T02:49:48.200Z,87.20
2023-04-03T02:52:51.136Z,87.29
2023-04-03T02:55:53.930Z,87.36
2023-04-03T02:58:57.092Z,87.43
2023-04-03T03:02:00.104Z,87.89
2023-04-03T03:05:03.422Z,88.21
2023-04-03T03:08:06.621Z,88.91
2023-04-03T03:11:10.071Z,89.05
2023-04-03T03:14:12.796Z,88.55
2023-04-03T03:17:15.716Z,89.59
2023-04-03T03:20:18.750Z,89.15
2023-04-03T03:23:23.523Z,89.14
2023-04-03T03:26:26.364Z,89.05
2023-04-03T03:29:29.114Z,88.37
2023-04-03T03:32:32.501Z,88.59
2023-04-03T03:35:35.459Z,88.53
2023-04-03T03:38:38.534Z,88.29
2023-04-03T03:41:41.490Z,87.11
2023-04-03T03:44:44.398Z,86.95
2023-04-03T03:47:47.648Z,86.55
2023-04-03T03:50:50.660Z,86.48
2023-04-03T03:53:53.521Z,86.45
2023-04-03T03:56:56.320Z,86.87
2023-04-03T03:59:59.123Z,86.58
2023-04-03T04:03:02.198Z,86.83
2023-04-03T04:06:05.293Z,86.62
2023-04-03T04:09:08.022Z,86.68
2023-04-03T04:12:10.752Z,86.44
2023-04-03T04:15:13.627Z,86.98
2023-04-03T04:18:16.621Z,87.01
2023-04-03T04:21:19.998Z,86.03
2023-04-03T04:24:23.988Z,86.28
2023-04-03T04:27:26.979Z,86.11
2023-04-03T04:30:29.895Z,86.07
2023-04-03T04:33:32.648Z,85.93
2023-04-03T04:36:35.290Z,85.31
2023-04-03T04:39:38.149Z,86.05
2023-04-03T04:42:41.610Z,85.30
2023-04-03T04:45:44.485Z,85.24
2023-04-03T04:48:47.317Z,84.53
2023-04-03T04:51:52.388Z,84.73
2023-04-03T04:54:55.392Z,83.87
2023-04-03T04:57:58.151Z,84.67
2023-04-03T05:01:06.692Z,84.27
2023-04-03T05:04:10.369Z,84.07
2023-04-03T05:07:13.183Z,84.17
2023-04-03T05:10:16.058Z,84.19
2023-04-03T05:13:18.820Z,84.50
2023-04-03T05:16:21.623Z,83.75
2023-04-03T05:19:24.483Z,83.56
2023-04-03T05:22:27.305Z,84.26
2023-04-03T05:25:30.167Z,85.05
2023-04-03T05:28:33.167Z,84.32
2023-04-03T05:31:36.397Z,84.44
2023-04-03T05:34:39.246Z,85.20
2023-04-03T05:37:42.084Z,84.46
2023-04-03T05:40:45.306Z,83.82
2023-04-03T05:43:48.491Z,83.84
2023-04-03T05:46:51.375Z,83.82
2023-04-03T05:49:54.152Z,82.67
2023-04-03T05:52:59.360Z,82.70
2023-04-03T05:56:02.950Z,81.19
2023-04-03T05:59:09.660Z,81.64
2023-04-03T06:02:14.340Z,80.30
2023-04-03T06:05:17.251Z,79.94
2023-04-03T06:08:20.512Z,79.61
2023-04-03T06:11:23.509Z,79.80
2023-04-03T06:14:27.222Z,78.35
2023-04-03T06:17:31.177Z,78.30
2023-04-03T06:20:33.975Z,77.24
2023-04-03T06:23:41.894Z,77.57
2023-04-03T06:26:44.960Z,76.64
2023-04-03T06:29:49.282Z,77.10
2023-04-03T06:32:53.163Z,75.75
2023-04-03T06:35:59.811Z,75.65
2023-04-03T06:39:04.234Z,75.80
2023-04-03T06:42:07.005Z,76.10
2023-04-03T06:45:11.901Z,74.69
2023-04-03T06:48:14.936Z,74.68
2023-04-03T06:51:30.393Z,74.61
2023-04-03T06:54:33.900Z,74.57
2023-04-03T06:57:37.245Z,73.78
2023-04-03T07:00:41.433Z,73.49
2023-04-03T07:03:44.136Z,73.70
2023-04-03T07:06:48.639Z,74.65
2023-04-03T07:09:51.458Z,72.97
2023-04-03T07:12:54.551Z,73.36
2023-04-03T07:15:58.722Z,72.29
2023-04-03T07:19:03.971Z,73.39
2023-04-03T07:22:06.723Z,71.67
2023-04-03T07:25:09.759Z,71.61
2023-04-03T07:31:14.847Z,69.89
2023-04-03T07:34:18.392Z,70.07
2023-04-03T07:37:21.780Z,68.56
2023-04-03T07:40:25.645Z,69.40
2023-04-03T07:43:28.834Z,69.21
2023-04-03T07:46:33.007Z,68.04
2023-04-03T07:49:39.192Z,66.28
2023-04-03T07:52:42.115Z,66.76
2023-04-03T07:58:54.095Z,65.93
2023-04-03T08:01:57.279Z,67.12
2023-04-03T08:05:00.726Z,64.81
2023-04-03T08:08:03.658Z,64.36
2023-04-03T08:11:09.247Z,63.82
2023-04-03T08:14:17.227Z,63.32
2023-04-03T08:17:20.301Z,61.68
2023-04-03T08:20:23.064Z,62.21
2023-04-03T08:23:25.735Z,60.20
2023-04-03T08:26:28.494Z,59.11
2023-04-03T08:29:32.983Z,59.88
2023-04-03T08:32:37.396Z,58.85
2023-04-03T08:35:42.114Z,57.88
2023-04-03T08:38:44.946Z,56.92
2023-04-03T08:41:49.075Z,56.96
2023-04-03T08:44:58.298Z,56.50
2023-04-03T08:48:12.582Z,55.69
2023-04-03T08:51:18.699Z,55.40
2023-04-03T08:54:35.639Z,55.40
2023-04-03T08:57:43.164Z,53.90
2023-04-03T09:00:52.956Z,53.11
2023-04-03T09:03:56.017Z,54.35
2023-04-03T09:07:21.316Z,53.61
2023-04-03T09:13:42.280Z,52.29
2023-04-03T09:16:59.492Z,51.90
2023-04-03T09:20:32.756Z,53.06
2023-04-03T09:23:53.190Z,51.09
2023-04-03T09:27:06.924Z,52.05
2023-04-03T09:30:25.126Z,53.12
2023-04-03T09:33:28.116Z,51.14
2023-04-03T09:36:41.481Z,50.44
2023-04-03T09:39:54.639Z,50.20
2023-04-03T09:43:01.486Z,50.63
2023-04-03T09:46:25.054Z,49.14
2023-04-03T09:49:28.324Z,49.61
2023-04-03T09:52:34.795Z,49.05
2023-04-03T09:55:45.304Z,49.12
2023-04-03T09:59:10.149Z,48.07
2023-04-03T10:02:13.026Z,46.36
2023-04-03T10:05:36.315Z,48.15
2023-04-03T10:08:41.005Z,48.00
2023-04-03T10:12:09.477Z,46.79
2023-04-03T10:15:21.168Z,47.74
2023-04-03T10:18:43.473Z,46.29
2023-04-03T10:21:58.981Z,46.46
2023-04-03T10:25:15.931Z,46.41
2023-04-03T10:28:41.130Z,44.87
2023-04-03T10:31:44.073Z,45.97
2023-04-03T10:34:58.626Z,44.81
2023-04-03T10:38:35.093Z,45.30
2023-04-03T10:42:26.937Z,45.04
2023-04-03T10:45:34.339Z,45.50
2023-04-03T10:48:49.768Z,46.47
2023-04-03T10:52:09.273Z,44.69
2023-04-03T10:55:14.737Z,46.15
2023-04-03T10:58:55.865Z,44.63
2023-04-03T11:02:06.249Z,43.13
2023-04-03T11:05:20.684Z,43.38
2023-04-03T11:08:40.845Z,43.81
2023-04-03T11:11:44.860Z,43.14
2023-04-03T11:14:49.951Z,41.86
2023-04-03T11:18:02.985Z,43.18
2023-04-03T11:21:30.856Z,44.74
2023-04-03T11:24:34.947Z,45.22
2023-04-03T11:27:59.706Z,45.72
2023-04-03T11:31:26.012Z,44.14
2023-04-03T11:34:39.594Z,43.52
2023-04-03T11:37:47.188Z,43.97
2023-04-03T11:40:51.423Z,44.20
2023-04-03T11:44:00.226Z,45.67
2023-04-03T11:47:05.002Z,45.24
2023-04-03T11:50:08.381Z,45.56
2023-04-03T11:53:14.680Z,44.68
2023-04-03T11:56:29.481Z,46.89
2023-04-03T11:59:38.724Z,45.91
2023-04-03T12:02:53.644Z,46.55
2023-04-03T12:06:14.884Z,45.71
2023-04-03T12:09:27.148Z,46.01
2023-04-03T12:12:34.270Z,45.86
2023-04-03T12:15:52.710Z,46.28
2023-04-03T12:19:05.046Z,45.58
2023-04-03T12:22:21.897Z,46.44
2023-04-03T12:25:53.962Z,47.01
2023-04-03T12:28:57.043Z,46.55
2023-04-03T12:32:45.024Z,46.75
2023-04-03T12:36:09.788Z,44.81
2023-04-03T12:39:36.355Z,45.88
2023-04-03T12:43:06.017Z,45.74
2023-04-03T12:46:09.112Z,42.56
2023-04-03T12:49:30.478Z,43.25
2023-04-03T12:52:37.061Z,43.29
2023-04-03T12:55:40.163Z,44.28
2023-04-03T12:58:43.144Z,43.62
2023-04-03T13:01:56.061Z,42.74
2023-04-03T13:05:01.858Z,42.24
2023-04-03T13:08:07.517Z,39.47
2023-04-03T13:11:13.037Z,37.00
2023-04-03T13:14:21.349Z,37.59
2023-04-03T13:17:25.212Z,36.54
2023-04-03T13:20:30.925Z,34.96
2023-04-03T13:23:38.056Z,35.81
2023-04-03T13:26:40.949Z,35.56
2023-04-03T13:29:44.999Z,37.96
2023-04-03T13:32:51.953Z,40.29
2023-04-03T13:36:21.544Z,42.69
2023-04-03T13:39:28.003Z,42.55
2023-04-03T13:42:33.151Z,41.18
2023-04-03T13:45:37.081Z,41.79
2023-04-03T13:48:49.013Z,40.96
2023-04-03T13:52:05.992Z,37.97
2023-04-03T13:55:29.974Z,38.41
2023-04-03T13:58:34.888Z,36.69
2023-04-03T14:02:12.273Z,36.62
2023-04-03T14:05:17.380Z,37.39
2023-04-03T14:08:32.283Z,39.04
2023-04-03T14:11:43.061Z,38.99
2023-04-03T14:14:47.989Z,37.73
2023-04-03T14:17:55.736Z,37.50
2023-04-03T14:20:59.019Z,35.23
2023-04-03T14:24:01.931Z,34.60
2023-04-03T14:27:14.519Z,32.69
2023-04-03T14:30:22.597Z,32.35
2023-04-03T14:33:27.502Z,32.32
2023-04-03T14:36:32.028Z,31.85
2023-04-03T14:39:35.138Z,33.75
2023-04-03T14:42:41.023Z,36.03
2023-04-03T14:45:44.042Z,35.71
2023-04-03T14:48:47.350Z,33.99
2023-04-03T14:51:50.730Z,33.97
2023-04-03T14:54:54.094Z,36.48
2023-04-03T14:57:57.251Z,34.25
2023-04-03T15:01:00.463Z,32.82
2023-04-03T15:04:06.428Z,32.95
2023-04-03T15:07:09.696Z,32.51
2023-04-03T15:10:17.463Z,32.06
2023-04-03T15:13:20.887Z,32.56
2023-04-03T15:16:31.194Z,32.44
2023-04-03T15:19:39.922Z,31.75
2023-04-03T15:22:43.526Z,30.17
2023-04-03T15:25:48.213Z,32.43
2023-04-03T15:28:51.034Z,31.64
2023-04-03T15:31:54.770Z,31.46
2023-04-03T15:34:57.777Z,32.78
2023-04-03T15:38:00.859Z,31.87
2023-04-03T15:41:03.736Z,31.90
2023-04-03T15:44:06.579Z,31.45
2023-04-03T15:47:09.697Z,31.21
2023-04-03T15:50:13.043Z,31.67
2023-04-03T15:53:16.426Z,30.89
2023-04-03T15:56:19.967Z,31.62
2023-04-03T15:59:23.401Z,32.42
2023-04-03T16:02:28.610Z,31.92
2023-04-03T16:05:32.419Z,31.77
2023-04-03T16:08:37.785Z,32.30
2023-04-03T16:11:41.429Z,32.29
2023-04-03T16:14:44.306Z,33.22
2023-04-03T16:20:53.900Z,36.06
2023-04-03T16:23:59.691Z,37.39
2023-04-03T16:27:02.637Z,38.05
2023-04-03T16:30:06.602Z,38.52
2023-04-03T16:33:10.817Z,38.87
2023-04-03T16:36:13.723Z,39.19
2023-04-03T16:39:16.887Z,39.55
2023-04-03T16:42:19.740Z,40.03
2023-04-03T16:45:22.764Z,38.96
2023-04-03T16:48:26.119Z,39.74
2023-04-03T16:51:29.325Z,39.53
2023-04-03T16:54:32.815Z,39.60
2023-04-03T16:57:35.916Z,38.65
2023-04-03T17:00:38.971Z,39.28
2023-04-03T17:03:42.463Z,39.94
2023-04-03T17:06:47.029Z,39.88
2023-04-03T17:09:55.060Z,39.53
2023-04-03T17:12:57.959Z,39.73
2023-04-03T17:16:01.614Z,40.64
2023-04-03T17:19:05.066Z,41.39
2023-04-03T17:22:09.874Z,42.05
2023-04-03T17:25:14.309Z,42.35
2023-04-03T17:28:18.023Z,43.00
2023-04-03T17:31:21.065Z,43.59
2023-04-03T17:34:23.953Z,43.62
2023-04-03T17:37:27.203Z,44.16
2023-04-03T17:40:30.135Z,44.19
2023-04-03T17:43:33.682Z,44.96
2023-04-03T17:46:36.676Z,45.03
2023-04-03T17:49:40.694Z,44.96
2023-04-03T17:52:43.738Z,44.99
2023-04-03T17:55:46.547Z,45.59
2023-04-03T17:58:50.161Z,45.53
2023-04-03T18:01:53.626Z,46.27
2023-04-03T18:04:57.863Z,45.73
2023-04-03T18:08:01.982Z,46.72
2023-04-03T18:11:05.053Z,46.93
2023-04-03T18:14:08.658Z,46.35
2023-04-03T18:17:12.237Z,46.50
2023-04-03T18:20:17.037Z,47.74
2023-04-03T18:23:21.038Z,47.66
2023-04-03T18:26:27.231Z,47.09
2023-04-03T18:29:36.336Z,47.37
2023-04-03T18:32:39.265Z,48.42
2023-04-03T18:35:43.927Z,47.67
2023-04-03T18:38:47.311Z,48.12
2023-04-03T18:41:51.673Z,49.14
2023-04-03T18:44:59.235Z,47.78
2023-04-03T18:48:03.451Z,48.44
2023-04-03T18:51:07.621Z,49.01
2023-04-03T18:54:11.719Z,49.78
2023-04-03T18:57:15.096Z,49.94
2023-04-03T19:00:22.589Z,49.13
2023-04-03T19:03:28.280Z,49.42
2023-04-03T19:06:33.337Z,50.05
2023-04-03T19:09:38.863Z,49.82
2023-04-03T19:12:41.918Z,49.89
2023-04-03T19:15:46.185Z,49.48
2023-04-03T19:18:49.435Z,49.76
2023-04-03T19:21:55.158Z,50.04
2023-04-03T19:24:58.463Z,51.10
2023-04-03T19:28:01.468Z,50.74
2023-04-03T19:31:12.755Z,51.07
2023-04-03T19:34:15.953Z,51.11
2023-04-03T19:37:19.756Z,50.73
2023-04-03T19:40:22.983Z,51.05
2023-04-03T19:43:26.141Z,50.69
2023-04-03T19:46:30.253Z,51.42
2023-04-03T19:49:34.129Z,51.67
2023-04-03T19:52:37.044Z,51.56
2023-04-03T19:55:41.734Z,51.72
2023-04-03T19:58:45.887Z,50.97
2023-04-03T20:01:49.968Z,52.00
2023-04-03T20:04:53.759Z,51.49
2023-04-03T20:07:56.888Z,51.56
2023-04-03T20:11:00.204Z,52.78
2023-04-03T20:14:03.276Z,52.35
2023-04-03T20:17:06.247Z,52.55
2023-04-03T20:20:09.809Z,52.66
2023-04-03T20:23:13.116Z,53.07
2023-04-03T20:26:23.817Z,53.37
2023-04-03T20:29:27.553Z,53.61
2023-04-03T20:32:30.580Z,54.64
2023-04-03T20:35:33.639Z,55.01
2023-04-03T20:38:36.712Z,55.11
2023-04-03T20:41:39.775Z,55.93
2023-04-03T20:44:46.110Z,55.65
2023-04-03T20:47:52.140Z,55.93
2023-04-03T20:50:55.012Z,55.79
2023-04-03T20:53:58.168Z,56.15
2023-04-03T20:57:02.603Z,56.37
2023-04-03T21:00:07.561Z,56.19
2023-04-03T21:03:11.109Z,57.40
2023-04-03T21:06:51.722Z,56.75
2023-04-03T21:10:32.713Z,56.24
2023-04-03T21:14:16.183Z,57.56
2023-04-03T21:17:18.825Z,57.25
2023-04-03T21:20:21.597Z,57.15
2023-04-03T21:23:26.370Z,57.04
2023-04-03T21:26:29.396Z,57.46
2023-04-03T21:29:32.135Z,57.52
2023-04-03T21:32:34.997Z,57.74
2023-04-03T21:35:37.991Z,58.57
2023-04-03T21:38:40.939Z,57.94
2023-04-03T21:41:43.746Z,58.11
2023-04-03T21:47:51.683Z,58.10
2023-04-03T21:50:54.903Z,58.65
2023-04-03T21:53:58.282Z,58.30
2023-04-03T21:57:01.498Z,58.44
2023-04-03T22:00:05.135Z,58.78
2023-04-03T22:03:10.688Z,58.61
2023-04-03T22:06:16.608Z,58.33
2023-04-03T22:09:19.943Z,58.25
2023-04-03T22:12:22.877Z,58.89
2023-04-03T22:15:25.929Z,59.31
2023-04-03T22:18:29.640Z,58.49
2023-04-03T22:21:33.755Z,58.82
2023-04-03T22:24:36.525Z,58.80
2023-04-03T22:27:39.347Z,59.50
2023-04-03T22:30:42.919Z,59.35
2023-04-03T22:33:46.284Z,59.67
2023-04-03T22:36:49.029Z,59.78
2023-04-03T22:39:53.582Z,59.47
2023-04-03T22:42:56.425Z,59.78
2023-04-03T22:46:04.188Z,59.66
2023-04-03T22:49:07.403Z,60.15
2023-04-03T22:52:10.489Z,60.47
2023-04-03T22:55:19.527Z,60.46
2023-04-03T22:58:25.998Z,60.68
2023-04-03T23:01:29.515Z,60.97
2023-04-03T23:04:32.763Z,60.94
2023-04-03T23:07:35.565Z,61.76
2023-04-03T23:10:38.516Z,60.99
2023-04-03T23:13:43.857Z,60.98
2023-04-03T23:16:47.067Z,61.11
2023-04-03T23:19:49.898Z,61.55
2023-04-03T23:22:53.314Z,62.36
2023-04-03T23:25:58.918Z,62.29
2023-04-03T23:29:02.122Z,62.54
2023-04-03T23:32:05.158Z,63.20
2023-04-03T23:35:08.535Z,62.31
2023-04-03T23:38:11.449Z,63.30
2023-04-03T23:41:14.291Z,63.27
2023-04-03T23:44:17.788Z,63.78
2023-04-03T23:47:21.057Z,63.99
2023-04-03T23:50:23.884Z,64.23
2023-04-03T23:53:27.411Z,63.95
2023-04-03T23:56:31.734Z,64.43
2023-04-03T23:59:34.205Z,64.27
